Modello, Florida
Current Conditions -  °F | °C
As of 5:58 AM on Sunday 21 Dec 2014 (Local Time) from KHST Reporting Station
Clear Clear  
Wind Chill: 61°   Ceiling: Unl
Heat Index: 61°   Visibility: 10mi
Dew Point: 60°   Wind: 2mph
Humidity: 95%   Direction: 360°N
Pressure: 30.06"   Gusts: NA
Location:  25.4848°N, 80.5094°W
Report Text: KHST 211058Z AUTO 36002KT 10SM CLR 16/16 A3006 RMK AO2 SLP182 T01630155 $
Loading
Personal Weather Stations






























Interactive Weather Map New forecast layout! Learn more

10-Day Weather Forecast

Advertisements
Track Severe Weather on mobile